createdAt,value
2023-11-16T00:00:03.405Z,8.28
2023-11-16T00:02:31.792Z,8.30
2023-11-16T00:04:58.994Z,8.37
2023-11-16T00:07:26.504Z,8.34
2023-11-16T00:09:53.598Z,8.34
2023-11-16T00:12:21.718Z,8.34
2023-11-16T00:14:49.874Z,8.37
2023-11-16T00:17:16.982Z,8.37
2023-11-16T00:19:44.546Z,8.39
2023-11-16T00:22:11.497Z,8.41
2023-11-16T00:24:38.469Z,8.46
2023-11-16T00:27:05.746Z,8.49
2023-11-16T00:29:34.014Z,8.52
2023-11-16T00:32:01.051Z,8.49
2023-11-16T00:34:28.229Z,8.49
2023-11-16T00:36:56.804Z,8.52
2023-11-16T00:39:23.884Z,8.52
2023-11-16T00:41:50.931Z,8.37
2023-11-16T00:44:21.456Z,8.28
2023-11-16T00:46:50.853Z,8.21
2023-11-16T00:49:18.052Z,8.19
2023-11-16T00:51:45.031Z,8.12
2023-11-16T00:54:15.282Z,8.05
2023-11-16T00:56:42.404Z,8.09
2023-11-16T00:59:11.649Z,8.10
2023-11-16T01:01:41.469Z,8.12
2023-11-16T01:04:13.519Z,8.03
2023-11-16T01:06:41.114Z,7.91
2023-11-16T01:09:08.662Z,7.80
2023-11-16T01:11:38.214Z,7.69
2023-11-16T01:14:05.468Z,7.53
2023-11-16T01:16:42.107Z,7.46
2023-11-16T01:19:14.076Z,7.38
2023-11-16T01:21:46.017Z,7.37
2023-11-16T01:24:13.228Z,7.44
2023-11-16T01:26:43.049Z,7.38
2023-11-16T01:29:11.442Z,7.34
2023-11-16T01:31:41.941Z,7.29
2023-11-16T01:34:11.842Z,7.20
2023-11-16T01:36:39.278Z,7.11
2023-11-16T01:39:07.122Z,7.07
2023-11-16T01:41:34.147Z,7.03
2023-11-16T01:44:04.126Z,6.97
2023-11-16T01:46:35.440Z,6.93
2023-11-16T01:49:03.213Z,6.89
2023-11-16T01:51:31.565Z,6.86
2023-11-16T01:54:00.283Z,6.82
2023-11-16T01:56:37.758Z,6.77
2023-11-16T01:59:05.026Z,6.73
2023-11-16T02:01:32.522Z,6.73
2023-11-16T02:03:59.678Z,6.71
2023-11-16T02:06:27.542Z,6.70
2023-11-16T02:08:54.989Z,6.66
2023-11-16T02:11:22.843Z,6.64
2023-11-16T02:13:52.940Z,6.65
2023-11-16T02:16:20.602Z,6.69
2023-11-16T02:18:48.561Z,6.73
2023-11-16T02:21:15.621Z,6.67
2023-11-16T02:23:43.667Z,6.63
2023-11-16T02:26:11.285Z,6.65
2023-11-16T02:28:38.487Z,6.65
2023-11-16T02:31:05.900Z,6.61
2023-11-16T02:33:34.575Z,6.64
2023-11-16T02:36:01.523Z,6.70
2023-11-16T02:38:29.046Z,6.73
2023-11-16T02:40:55.966Z,6.82
2023-11-16T02:43:23.332Z,6.93
2023-11-16T02:45:50.184Z,7.01
2023-11-16T02:48:17.271Z,7.19
2023-11-16T02:50:44.591Z,7.29
2023-11-16T02:53:11.814Z,7.41
2023-11-16T02:55:38.728Z,7.53
2023-11-16T02:58:07.716Z,7.66
2023-11-16T03:00:35.865Z,7.74
2023-11-16T03:03:04.649Z,7.74
2023-11-16T03:05:31.588Z,7.78
2023-11-16T03:07:58.537Z,7.86
2023-11-16T03:10:26.601Z,7.88
2023-11-16T03:12:53.837Z,7.88
2023-11-16T03:15:21.042Z,7.88
2023-11-16T03:17:48.272Z,7.92
2023-11-16T03:20:19.080Z,7.89
2023-11-16T03:22:46.088Z,7.90
2023-11-16T03:25:13.060Z,7.92
2023-11-16T03:27:40.024Z,7.88
2023-11-16T03:30:07.684Z,7.88
2023-11-16T03:32:34.939Z,7.84
2023-11-16T03:35:01.868Z,7.85
2023-11-16T03:37:33.104Z,7.89
2023-11-16T03:40:00.183Z,7.87
2023-11-16T03:42:27.643Z,7.86
2023-11-16T03:44:54.574Z,7.83
2023-11-16T03:47:21.534Z,7.79
2023-11-16T03:49:48.780Z,7.79
2023-11-16T03:52:16.066Z,7.81
2023-11-16T03:54:44.143Z,7.87
2023-11-16T03:57:12.699Z,7.86
2023-11-16T03:59:39.661Z,7.94
2023-11-16T04:02:06.766Z,7.88
2023-11-16T04:04:33.982Z,7.88
2023-11-16T04:07:01.210Z,7.91
2023-11-16T04:09:28.263Z,7.96
2023-11-16T04:11:55.239Z,7.97
2023-11-16T04:14:22.197Z,8.00
2023-11-16T04:16:55.035Z,8.03
2023-11-16T04:19:22.812Z,8.05
2023-11-16T04:21:51.336Z,8.14
2023-11-16T04:24:19.602Z,8.17
2023-11-16T04:26:50.294Z,8.13
2023-11-16T04:29:17.739Z,8.19
2023-11-16T04:31:45.618Z,8.27
2023-11-16T04:34:13.675Z,8.34
2023-11-16T04:36:43.444Z,8.35
2023-11-16T04:39:10.449Z,8.40
2023-11-16T04:41:37.447Z,8.40
2023-11-16T04:44:06.404Z,8.38
2023-11-16T04:46:33.635Z,8.31
2023-11-16T04:49:01.777Z,8.33
2023-11-16T04:51:29.043Z,8.30
2023-11-16T04:53:57.562Z,8.27
2023-11-16T04:56:24.472Z,8.27
2023-11-16T04:58:51.758Z,8.25
2023-11-16T05:01:18.928Z,8.26
2023-11-16T05:03:46.263Z,8.21
2023-11-16T05:06:15.010Z,8.20
2023-11-16T05:08:44.953Z,8.19
2023-11-16T05:11:12.226Z,8.16
2023-11-16T05:13:39.177Z,8.21
2023-11-16T05:16:06.465Z,8.21
2023-11-16T05:18:34.063Z,8.26
2023-11-16T05:21:05.719Z,8.25
2023-11-16T05:23:32.775Z,8.22
2023-11-16T05:26:01.297Z,8.22
2023-11-16T05:28:28.413Z,8.24
2023-11-16T05:30:55.533Z,8.21
2023-11-16T05:33:25.845Z,8.13
2023-11-16T05:35:58.102Z,8.20
2023-11-16T05:38:25.330Z,8.19
2023-11-16T05:40:53.716Z,8.24
2023-11-16T05:43:21.567Z,8.22
2023-11-16T05:45:49.080Z,8.26
2023-11-16T05:48:16.959Z,8.29
2023-11-16T05:50:44.886Z,8.27
2023-11-16T05:53:12.858Z,8.35
2023-11-16T05:55:40.359Z,8.38
2023-11-16T05:58:07.826Z,8.36
2023-11-16T06:00:39.068Z,8.38
2023-11-16T06:03:07.492Z,8.42
2023-11-16T06:05:37.092Z,8.44
2023-11-16T06:08:04.798Z,8.46
2023-11-16T06:10:31.918Z,8.45
2023-11-16T06:13:01.028Z,8.46
2023-11-16T06:15:32.070Z,8.53
2023-11-16T06:18:02.950Z,8.59
2023-11-16T06:20:30.955Z,8.53
2023-11-16T06:22:58.355Z,8.59
2023-11-16T06:25:25.399Z,8.62
2023-11-16T06:27:52.622Z,8.64
2023-11-16T06:30:20.373Z,8.72
2023-11-16T06:32:48.998Z,8.71
2023-11-16T06:35:16.180Z,8.82
2023-11-16T06:37:44.877Z,8.84
2023-11-16T06:40:13.269Z,8.88
2023-11-16T06:42:41.569Z,8.84
2023-11-16T06:45:09.471Z,8.95
2023-11-16T06:47:37.090Z,8.96
2023-11-16T06:50:05.500Z,9.06
2023-11-16T06:52:33.041Z,9.15
2023-11-16T06:55:00.604Z,9.26
2023-11-16T06:57:30.581Z,9.30
2023-11-16T06:59:59.297Z,9.32
2023-11-16T07:02:26.330Z,9.41
2023-11-16T07:04:53.234Z,9.45
2023-11-16T07:07:20.209Z,9.55
2023-11-16T07:09:48.408Z,9.57
2023-11-16T07:12:16.916Z,9.61
2023-11-16T07:14:51.539Z,9.70
2023-11-16T07:17:21.483Z,9.70
2023-11-16T07:19:51.269Z,9.74
2023-11-16T07:22:20.077Z,9.59
2023-11-16T07:24:51.173Z,9.59
2023-11-16T07:27:18.401Z,9.58
2023-11-16T07:29:45.812Z,9.58
2023-11-16T07:32:14.599Z,9.64
2023-11-16T07:34:43.236Z,9.56
2023-11-16T07:37:10.571Z,9.61
2023-11-16T07:39:39.054Z,9.57
2023-11-16T07:42:06.755Z,9.71
2023-11-16T07:44:34.035Z,9.78
2023-11-16T07:47:01.690Z,9.82
2023-11-16T07:49:29.220Z,9.82
2023-11-16T07:51:56.959Z,9.93
2023-11-16T07:54:24.146Z,9.97
2023-11-16T07:56:56.710Z,10.03
2023-11-16T07:59:32.929Z,10.05
2023-11-16T08:02:02.827Z,10.14
2023-11-16T08:04:31.367Z,10.24
2023-11-16T08:07:01.082Z,10.31
2023-11-16T08:09:31.312Z,10.38
2023-11-16T08:12:00.682Z,10.37
2023-11-16T08:14:27.744Z,10.53
2023-11-16T08:17:00.296Z,10.64
2023-11-16T08:19:28.420Z,10.64
2023-11-16T08:21:58.514Z,10.85
2023-11-16T08:24:27.843Z,10.95
2023-11-16T08:26:58.152Z,11.04
2023-11-16T08:29:25.971Z,11.12
2023-11-16T08:31:58.621Z,11.05
2023-11-16T08:34:29.517Z,11.09
2023-11-16T08:36:57.472Z,11.17
2023-11-16T08:39:25.403Z,11.17
2023-11-16T08:41:54.736Z,11.24
2023-11-16T08:44:24.375Z,11.21
2023-11-16T08:46:57.939Z,11.37
2023-11-16T08:49:25.290Z,11.37
2023-11-16T08:52:02.658Z,11.38
2023-11-16T08:54:30.812Z,11.48
2023-11-16T08:56:59.616Z,11.43
2023-11-16T08:59:28.006Z,11.56
2023-11-16T09:01:57.855Z,11.53
2023-11-16T09:04:26.058Z,11.60
2023-11-16T09:06:53.867Z,11.64
2023-11-16T09:09:39.848Z,11.77
2023-11-16T09:12:15.046Z,11.77
2023-11-16T09:14:43.491Z,11.78
2023-11-16T09:17:20.371Z,11.85
2023-11-16T09:19:52.178Z,11.98
2023-11-16T09:22:19.742Z,12.16
2023-11-16T09:24:50.318Z,12.25
2023-11-16T09:27:19.394Z,12.18
2023-11-16T09:29:53.623Z,12.21
2023-11-16T09:32:23.013Z,12.19
2023-11-16T09:35:06.178Z,12.28
2023-11-16T09:37:38.479Z,12.41
2023-11-16T09:40:06.837Z,12.48
2023-11-16T09:42:35.829Z,12.55
2023-11-16T09:45:05.331Z,12.63
2023-11-16T09:47:41.898Z,12.60
2023-11-16T09:50:10.394Z,12.42
2023-11-16T09:52:41.243Z,12.57
2023-11-16T09:55:11.462Z,12.68
2023-11-16T09:57:42.871Z,12.73
2023-11-16T10:00:17.230Z,12.85
2023-11-16T10:02:47.390Z,12.83
2023-11-16T10:05:28.401Z,12.86
2023-11-16T10:07:58.536Z,12.90
2023-11-16T10:10:31.304Z,12.85
2023-11-16T10:12:58.449Z,13.02
2023-11-16T10:15:26.489Z,13.01
2023-11-16T10:17:53.839Z,13.20
2023-11-16T10:20:22.322Z,13.12
2023-11-16T10:22:50.146Z,13.36
2023-11-16T10:25:19.096Z,13.39
2023-11-16T10:27:46.161Z,13.32
2023-11-16T10:30:13.917Z,13.23
2023-11-16T10:32:44.033Z,13.19
2023-11-16T10:35:15.968Z,13.46
2023-11-16T10:37:43.854Z,13.39
2023-11-16T10:40:12.261Z,13.46
2023-11-16T10:42:43.951Z,13.49
2023-11-16T10:45:16.055Z,13.37
2023-11-16T10:47:46.626Z,13.34
2023-11-16T10:50:17.467Z,13.46
2023-11-16T10:52:45.233Z,13.42
2023-11-16T10:55:29.496Z,13.48
2023-11-16T10:58:06.389Z,13.37
2023-11-16T11:00:37.179Z,13.14
2023-11-16T11:03:08.367Z,13.39
2023-11-16T11:05:39.683Z,13.39
2023-11-16T11:08:10.469Z,13.52
2023-11-16T11:10:43.015Z,13.48
2023-11-16T11:13:10.300Z,13.50
2023-11-16T11:15:38.628Z,13.63
2023-11-16T11:18:10.607Z,13.52
2023-11-16T11:20:41.834Z,13.67
2023-11-16T11:23:17.617Z,13.79
2023-11-16T11:25:44.753Z,13.89
2023-11-16T11:28:13.113Z,14.00
2023-11-16T11:30:55.812Z,14.04
2023-11-16T11:33:38.110Z,13.99
2023-11-16T11:36:10.206Z,14.08
2023-11-16T11:38:40.234Z,13.93
2023-11-16T11:41:08.714Z,13.86
2023-11-16T11:43:40.237Z,13.92
2023-11-16T11:46:19.971Z,14.02
2023-11-16T11:48:48.376Z,13.93
2023-11-16T11:51:17.994Z,13.82
2023-11-16T11:53:49.624Z,13.82
2023-11-16T11:56:17.418Z,13.81
2023-11-16T11:58:44.699Z,13.82
2023-11-16T12:01:15.116Z,13.83
2023-11-16T12:04:10.199Z,13.88
2023-11-16T12:06:43.983Z,13.95
2023-11-16T12:09:11.443Z,13.95
2023-11-16T12:11:38.458Z,13.90
2023-11-16T12:14:11.968Z,13.88
2023-11-16T12:16:39.272Z,13.90
2023-11-16T12:19:10.742Z,14.05
2023-11-16T12:21:41.211Z,13.96
2023-11-16T12:24:10.828Z,13.96
2023-11-16T12:26:37.655Z,14.07
2023-11-16T12:29:16.973Z,13.95
2023-11-16T12:31:45.381Z,14.02
2023-11-16T12:34:13.948Z,14.06
2023-11-16T12:36:46.011Z,13.85
2023-11-16T12:39:15.460Z,13.85
2023-11-16T12:41:42.894Z,13.84
2023-11-16T12:44:12.285Z,13.86
2023-11-16T12:46:40.591Z,13.82
2023-11-16T12:49:07.575Z,13.78
2023-11-16T12:51:34.740Z,13.95
2023-11-16T12:54:02.098Z,14.00
2023-11-16T12:56:29.444Z,14.06
2023-11-16T12:58:58.489Z,14.04
2023-11-16T13:01:25.833Z,13.98
2023-11-16T13:03:54.267Z,13.96
2023-11-16T13:06:21.678Z,14.04
2023-11-16T13:08:49.678Z,13.99
2023-11-16T13:11:16.877Z,13.99
2023-11-16T13:13:44.285Z,13.96
2023-11-16T13:16:14.241Z,13.89
2023-11-16T13:18:41.511Z,13.92
2023-11-16T13:21:12.705Z,13.93
2023-11-16T13:23:41.380Z,13.81
2023-11-16T13:26:08.333Z,13.78
2023-11-16T13:28:35.286Z,13.80
2023-11-16T13:31:02.649Z,13.66
2023-11-16T13:33:30.111Z,13.58
2023-11-16T13:35:57.065Z,13.57
2023-11-16T13:38:24.706Z,13.51
2023-11-16T13:40:52.011Z,13.45
2023-11-16T13:43:19.131Z,13.33
2023-11-16T13:45:46.545Z,13.25
2023-11-16T13:48:14.308Z,13.25
2023-11-16T13:50:43.124Z,13.19
2023-11-16T13:53:11.612Z,13.19
2023-11-16T13:55:38.489Z,13.11
2023-11-16T13:58:05.484Z,13.10
2023-11-16T14:00:33.748Z,13.10
2023-11-16T14:03:01.050Z,13.08
2023-11-16T14:05:27.992Z,13.07
2023-11-16T14:07:55.154Z,13.06
2023-11-16T14:10:25.079Z,12.99
2023-11-16T14:12:56.505Z,12.97
2023-11-16T14:15:24.653Z,12.90
2023-11-16T14:17:51.935Z,12.81
2023-11-16T14:20:19.171Z,12.81
2023-11-16T14:22:46.421Z,12.81
2023-11-16T14:25:13.551Z,12.84
2023-11-16T14:27:40.600Z,12.90
2023-11-16T14:30:08.348Z,12.83
2023-11-16T14:32:35.492Z,12.78
2023-11-16T14:35:14.046Z,12.77
2023-11-16T14:37:46.883Z,12.68
2023-11-16T14:40:14.846Z,12.60
2023-11-16T14:42:41.969Z,12.53
2023-11-16T14:45:10.554Z,12.48
2023-11-16T14:47:40.040Z,12.43
2023-11-16T14:50:14.577Z,12.43
2023-11-16T14:52:43.873Z,12.41
2023-11-16T14:55:11.373Z,12.32
2023-11-16T14:57:41.656Z,12.25
2023-11-16T15:00:10.045Z,12.18
2023-11-16T15:02:38.244Z,12.14
2023-11-16T15:05:10.950Z,12.06
2023-11-16T15:07:39.856Z,11.98
2023-11-16T15:10:12.549Z,11.92
2023-11-16T15:12:41.127Z,11.86
2023-11-16T15:15:13.368Z,11.82
2023-11-16T15:17:42.121Z,11.82
2023-11-16T15:20:20.160Z,11.76
2023-11-16T15:22:54.148Z,11.74
2023-11-16T15:25:21.275Z,11.72
2023-11-16T15:27:48.956Z,11.65
2023-11-16T15:30:16.933Z,11.57
2023-11-16T15:32:43.985Z,11.50
2023-11-16T15:35:11.555Z,11.48
2023-11-16T15:37:38.630Z,11.45
2023-11-16T15:40:06.495Z,11.44
2023-11-16T15:42:34.471Z,11.42
2023-11-16T15:45:01.926Z,11.37
2023-11-16T15:47:29.282Z,11.30
2023-11-16T15:49:56.239Z,11.25
2023-11-16T15:52:24.442Z,11.20
2023-11-16T15:54:55.168Z,11.17
2023-11-16T15:57:27.740Z,11.12
2023-11-16T15:59:59.909Z,11.13
2023-11-16T16:02:30.897Z,11.15
2023-11-16T16:05:01.372Z,11.17
2023-11-16T16:07:29.045Z,11.16
2023-11-16T16:09:57.615Z,11.12
2023-11-16T16:12:25.050Z,11.04
2023-11-16T16:14:51.875Z,10.99
2023-11-16T16:17:18.807Z,10.96
2023-11-16T16:19:45.685Z,10.90
2023-11-16T16:22:16.426Z,10.84
2023-11-16T16:24:44.242Z,10.78
2023-11-16T16:27:11.705Z,10.77
2023-11-16T16:29:38.904Z,10.71
2023-11-16T16:32:11.433Z,10.64
2023-11-16T16:34:38.315Z,10.54
2023-11-16T16:37:05.427Z,10.51
2023-11-16T16:39:33.655Z,10.53
2023-11-16T16:42:00.588Z,10.50
2023-11-16T16:44:28.554Z,10.46
2023-11-16T16:46:55.621Z,10.47
2023-11-16T16:49:22.667Z,10.47
2023-11-16T16:51:51.656Z,10.47
2023-11-16T16:54:18.572Z,10.48
2023-11-16T16:56:46.500Z,10.45
2023-11-16T16:59:16.240Z,10.48
2023-11-16T17:01:43.754Z,10.50
2023-11-16T17:04:11.288Z,10.46
2023-11-16T17:06:41.358Z,10.43
2023-11-16T17:09:09.444Z,10.38
2023-11-16T17:11:36.599Z,10.44
2023-11-16T17:14:03.689Z,10.40
2023-11-16T17:16:31.388Z,10.37
2023-11-16T17:18:58.399Z,10.40
2023-11-16T17:21:26.013Z,10.41
2023-11-16T17:23:53.360Z,10.43
2023-11-16T17:26:21.101Z,10.41
2023-11-16T17:28:49.979Z,10.41
2023-11-16T17:31:18.981Z,10.42
2023-11-16T17:33:46.539Z,10.45
2023-11-16T17:36:13.957Z,10.45
2023-11-16T17:38:41.213Z,10.46
2023-11-16T17:41:08.313Z,10.47
2023-11-16T17:43:37.305Z,10.45
2023-11-16T17:46:05.127Z,10.47
2023-11-16T17:48:32.357Z,10.42
2023-11-16T17:51:03.467Z,10.42
2023-11-16T17:53:30.847Z,10.38
2023-11-16T17:55:58.224Z,10.42
2023-11-16T17:58:26.456Z,10.37
2023-11-16T18:00:54.148Z,10.40
2023-11-16T18:03:21.334Z,10.38
2023-11-16T18:05:48.998Z,10.40
2023-11-16T18:08:16.025Z,10.41
2023-11-16T18:10:45.569Z,10.42
2023-11-16T18:13:17.708Z,10.42
2023-11-16T18:15:45.574Z,10.42
2023-11-16T18:18:12.809Z,10.39
2023-11-16T18:20:40.641Z,10.36
2023-11-16T18:23:09.780Z,10.36
2023-11-16T18:25:41.124Z,10.30
2023-11-16T18:28:14.556Z,10.21
2023-11-16T18:30:47.625Z,10.14
2023-11-16T18:33:15.905Z,10.08
2023-11-16T18:35:43.355Z,9.96
2023-11-16T18:38:13.839Z,9.94
2023-11-16T18:40:42.312Z,9.86
2023-11-16T18:43:12.519Z,9.81
2023-11-16T18:45:40.600Z,9.83
2023-11-16T18:48:10.980Z,9.83
2023-11-16T18:50:39.060Z,9.77
2023-11-16T18:53:06.287Z,9.74
2023-11-16T18:55:33.404Z,9.71
2023-11-16T18:58:00.575Z,9.74
2023-11-16T19:00:27.839Z,9.78
2023-11-16T19:03:08.740Z,9.78
2023-11-16T19:05:35.948Z,9.81
2023-11-16T19:08:02.894Z,9.86
2023-11-16T19:10:32.004Z,9.86
2023-11-16T19:12:59.322Z,9.88
2023-11-16T19:15:26.772Z,9.90
2023-11-16T19:17:54.420Z,9.88
2023-11-16T19:20:24.894Z,9.97
2023-11-16T19:22:53.309Z,9.98
2023-11-16T19:25:21.087Z,9.97
2023-11-16T19:27:48.611Z,10.03
2023-11-16T19:30:16.385Z,10.01
2023-11-16T19:32:47.968Z,9.97
2023-11-16T19:35:17.374Z,9.99
2023-11-16T19:37:44.527Z,10.01
2023-11-16T19:40:15.712Z,10.00
2023-11-16T19:42:47.025Z,10.03
2023-11-16T19:45:14.611Z,9.99
2023-11-16T19:47:41.585Z,9.98
2023-11-16T19:50:08.980Z,9.96
2023-11-16T19:52:37.871Z,9.93
2023-11-16T19:55:06.043Z,9.93
2023-11-16T19:57:33.634Z,9.94
2023-11-16T20:00:05.440Z,9.95
2023-11-16T20:02:32.638Z,9.92
2023-11-16T20:05:00.891Z,9.94
2023-11-16T20:07:31.370Z,9.96
2023-11-16T20:09:58.331Z,9.98
2023-11-16T20:12:25.495Z,9.90
2023-11-16T20:14:57.626Z,9.85
2023-11-16T20:17:28.008Z,9.87
2023-11-16T20:19:56.549Z,9.82
2023-11-16T20:22:24.508Z,9.84
2023-11-16T20:24:51.459Z,9.77
2023-11-16T20:27:18.768Z,9.74
2023-11-16T20:29:45.790Z,9.67
2023-11-16T20:32:13.335Z,9.67
2023-11-16T20:34:40.391Z,9.69
2023-11-16T20:37:07.444Z,9.67
2023-11-16T20:39:34.988Z,9.69
2023-11-16T20:42:05.351Z,9.66
2023-11-16T20:44:33.766Z,9.68
2023-11-16T20:47:00.923Z,9.65
2023-11-16T20:49:28.300Z,9.67
2023-11-16T20:51:56.545Z,9.61
2023-11-16T20:54:23.721Z,9.64
2023-11-16T20:56:50.724Z,9.59
2023-11-16T20:59:19.001Z,9.57
2023-11-16T21:01:46.243Z,9.56
2023-11-16T21:04:13.424Z,9.49
2023-11-16T21:06:40.748Z,9.48
2023-11-16T21:09:11.134Z,9.49
2023-11-16T21:11:38.883Z,9.49
2023-11-16T21:14:06.172Z,9.47
2023-11-16T21:16:34.207Z,9.45
2023-11-16T21:19:01.275Z,9.48
2023-11-16T21:21:28.508Z,9.48
2023-11-16T21:23:55.438Z,9.44
2023-11-16T21:26:23.200Z,9.48
2023-11-16T21:28:50.176Z,9.49
2023-11-16T21:31:17.265Z,9.52
2023-11-16T21:33:44.369Z,9.49
2023-11-16T21:36:11.710Z,9.49
2023-11-16T21:38:39.370Z,9.46
2023-11-16T21:41:07.626Z,9.47
2023-11-16T21:43:34.713Z,9.45
2023-11-16T21:46:01.849Z,9.39
2023-11-16T21:48:29.535Z,9.42
2023-11-16T21:50:56.437Z,9.41
2023-11-16T21:53:24.065Z,9.37
2023-11-16T21:55:52.042Z,9.31
2023-11-16T21:58:19.098Z,9.35
2023-11-16T22:00:46.077Z,9.34
2023-11-16T22:03:13.058Z,9.35
2023-11-16T22:05:40.300Z,9.38
2023-11-16T22:08:07.147Z,9.31
2023-11-16T22:10:34.031Z,9.24
2023-11-16T22:13:01.153Z,9.23
2023-11-16T22:15:28.065Z,9.18
2023-11-16T22:17:54.949Z,9.22
2023-11-16T22:20:21.909Z,9.21
2023-11-16T22:22:50.241Z,9.21
2023-11-16T22:25:18.515Z,9.23
2023-11-16T22:27:47.544Z,9.28
2023-11-16T22:30:21.275Z,9.23
2023-11-16T22:32:49.214Z,9.23
2023-11-16T22:35:18.976Z,9.24
2023-11-16T22:37:47.514Z,9.22
2023-11-16T22:40:15.630Z,9.22
2023-11-16T22:42:44.325Z,9.25
2023-11-16T22:45:11.688Z,9.26
2023-11-16T22:47:39.242Z,9.28
2023-11-16T22:50:08.951Z,9.29
2023-11-16T22:52:37.222Z,9.32
2023-11-16T22:55:05.202Z,9.37
2023-11-16T22:57:32.335Z,9.36
2023-11-16T22:59:59.234Z,9.32
2023-11-16T23:02:29.242Z,9.35
2023-11-16T23:04:57.689Z,9.36
2023-11-16T23:07:24.916Z,9.36
2023-11-16T23:09:51.936Z,9.37
2023-11-16T23:12:18.830Z,9.38
2023-11-16T23:14:45.986Z,9.40
2023-11-16T23:17:13.276Z,9.42
2023-11-16T23:19:40.591Z,9.35
2023-11-16T23:22:14.258Z,9.33
2023-11-16T23:24:42.738Z,9.32
2023-11-16T23:27:14.176Z,9.32
2023-11-16T23:29:41.822Z,9.36
2023-11-16T23:32:09.136Z,9.29
2023-11-16T23:34:36.896Z,9.33
2023-11-16T23:37:04.852Z,9.30
2023-11-16T23:39:31.816Z,9.31
2023-11-16T23:41:59.341Z,9.28
2023-11-16T23:44:27.265Z,9.28
2023-11-16T23:46:55.554Z,9.26
2023-11-16T23:49:23.412Z,9.27
2023-11-16T23:51:50.545Z,9.25
2023-11-16T23:54:18.465Z,9.26
2023-11-16T23:56:45.576Z,9.23
2023-11-16T23:59:15.345Z,9.23
